logo
Search for airport 
image banner adimage banner adimage banner ad
image banner ad

CRS5 - Spud Plains

Located in Wheatland, Canada

ICAO - , IATA -

Data provided by Airmate  

General information

Coordinates: N49°59'26" W100°18'48"
Elevation is 1542 feet MSL.
Magnetic variation is 5.4833° East
View others Airports in Manitoba

Operational data

Special qualification required
Current time UTC:
Current local time:
Weather at : CYBR - Brandon Municipality ( 27 km )
METAR: CYBR 290000Z 28008KT 15SM FEW035 SCT250 18/11 A2974 RMK CU2CI2 SLP077 DENSITY ALT 2300FT
TAF: TAF CYBR 282340Z 2900/2912 25008KT P6SM SCT040 FM290400 26005KT P6SM FEW004 TEMPO 2904/2909 2SM BR FM290900 26004KT 4SM BR FEW004 TEMPO 2909/2912 1/2SM FG VV002 RMK NXT FCST BY 290600Z
View NOTAMs / SUP AIP / TFR affecting this airport [VIEW]
Communications frequencies: [VIEW]

Runways:

RWY identifierQFULength (ft)Width (ft)SurfaceLDA (ft)
09336075CONC+GRS
27336075CONC+GRS

Airport contact information

Address: Wheatland Canada

Satellite view of CRS5